Huvudsida
METAR-TAF:

METAR-TAF

Flygplatser :

Stockholm Skavsta Airport

Stockholm-Skavsta, Sverige

latitud: 58-47N, longitud: 016-55E, höjd: 43 m

Aktuellt väderrapport

Denna rapport gjordes för 22 minuter sedan, klockan 00:50 UTC
Vind 6 kt från väst/nordväst
Temperatur 8°C
Fuktighet 53%
Tryck 1024 hPa
Sikt 10 km eller mer
Inga moln under 1 500 m eller inga cumulonimbus

METAR: ESKN 210050Z 29006KT CAVOK 08/M01 Q1024

Tid: 03:12 (01:12 UTC)

Väderprognos

Denna rapport gjordes för 1 timme och 42 minuter sedan, klockan 23:30 UTC
Prognos gäller från 21 kl. 00 UTC till 21 kl. 24 UTC
Vind 5 kt från väst/nordväst
Sikt 10 km eller mer
Inga moln under 1 500 m eller inga cumulonimbus
Blir
från 21 kl. 08 UTC till 21 kl. 11 UTC
Vind 10 kt från syd/sydost

TAF: ESKN 202330Z 2100/2124 29005KT CAVOK BECMG 2108/2111 15010KT

Aktuella väderrapporter och prognoser från 4000 flygplatser (METAR- och TAF-rapporter).

De tillgängliga stationerna syns som gula och röda prickar på kartan.

För musen över prickarna för att se namnen på stationerna.

Klicka sedan för att få väderrapporter och prognoser.

För att ändra kartan: Klicka på de gröna knapparna med ett svart kors på för att zooma in; den gröna knappen med ett streck på för att zooma ut; eller på de gröna pilarna för angränsande kartor.


METAR-TAF: